Time;durP1;ratioP1;P1;durP2;ratioP2;P2;SDS_P1;SDS_P2;PMS_P1;PMS_P2;Temp;Humidity;BMP_temperature;BMP_pressure;BME280_temperature;BME280_humidity;BME280_pressure;Samples;Min_cycle;Max_cycle;Signal;HPM_P1;HPM_P2
2022/10/11 00:01:22;;;;;;;8.30;2.67;;;6.10;99.90;;;;;;5075981;28;20491;-78
2022/10/11 00:03:48;;;;;;;10.63;2.50;;;6.00;99.90;;;;;;5075986;28;20048;-78
2022/10/11 00:06:14;;;;;;;7.22;2.10;;;5.80;99.90;;;;;;5074766;28;20040;-78
2022/10/11 00:08:39;;;;;;;10.18;2.78;;;6.10;99.90;;;;;;5074574;28;20047;-79
2022/10/11 00:11:06;;;;;;;6.43;2.17;;;5.90;99.90;;;;;;5075873;28;20460;-78
2022/10/11 00:13:33;;;;;;;7.47;2.40;;;6.00;99.90;;;;;;5075763;28;20047;-79
2022/10/11 00:15:59;;;;;;;7.47;2.15;;;6.00;99.90;;;;;;5076316;28;20123;-80
2022/10/11 00:18:24;;;;;;;6.53;2.47;;;5.10;99.90;;;;;;5075753;28;20453;-79
2022/10/11 00:21:00;;;;;;;9.88;2.58;;;6.00;99.90;;;;;;5075892;28;20036;-80
2022/10/11 00:23:25;;;;;;;6.63;2.63;;;5.80;99.90;;;;;;5074727;28;20366;-80
2022/10/11 00:26:02;;;;;;;9.25;2.15;;;5.90;99.90;;;;;;5076179;28;20048;-80
2022/10/11 00:28:28;;;;;;;14.02;2.10;;;5.80;99.90;;;;;;5075151;28;20392;-78
2022/10/11 00:30:54;;;;;;;5.97;2.15;;;5.80;99.90;;;;;;5075712;28;20047;-78
2022/10/11 00:33:19;;;;;;;6.70;2.10;;;5.60;99.90;;;;;;5075428;28;20047;-77
2022/10/11 00:35:45;;;;;;;8.10;2.53;;;5.80;99.90;;;;;;5075353;28;20167;-77
2022/10/11 00:38:11;;;;;;;16.88;2.72;;;5.80;99.90;;;;;;5075257;28;20048;-80
2022/10/11 00:40:37;;;;;;;7.35;2.85;;;6.00;99.90;;;;;;5074420;28;20044;-80
2022/10/11 00:43:02;;;;;;;7.63;2.58;;;5.80;99.90;;;;;;5075348;28;20068;-78
2022/10/11 00:45:31;;;;;;;6.75;1.88;;;5.60;99.90;;;;;;5075266;28;20405;-80
2022/10/11 00:48:06;;;;;;;11.13;2.38;;;5.70;99.90;;;;;;5075124;28;20041;-79
2022/10/11 00:50:34;;;;;;;9.57;2.25;;;5.50;99.90;;;;;;5075061;28;20131;-77
2022/10/11 00:53:04;;;;;;;7.43;2.28;;;6.60;99.90;;;;;;5075030;28;20049;-78
2022/10/11 00:55:36;;;;;;;9.02;2.17;;;5.40;99.90;;;;;;5075150;28;20051;-79
2022/10/11 00:58:02;;;;;;;7.20;1.85;;;5.50;99.90;;;;;;5075249;28;20072;-79
2022/10/11 01:00:27;;;;;;;9.05;3.00;;;5.60;99.90;;;;;;5074881;28;20051;-79
2022/10/11 01:02:53;;;;;;;5.97;2.20;;;5.60;99.90;;;;;;5074870;28;20048;-78
2022/10/11 01:05:19;;;;;;;9.95;2.28;;;5.50;99.90;;;;;;5074660;28;20075;-80
2022/10/11 01:07:46;;;;;;;11.20;2.42;;;5.70;99.90;;;;;;5074800;28;20055;-79
2022/10/11 01:10:12;;;;;;;;;;;5.60;99.90;;;;;;5075049;28;20045;-79
2022/10/11 01:13:00;;;;;;;10.85;2.30;;;5.50;99.90;;;;;;5074372;28;20273;-79
2022/10/11 01:15:59;;;;;;;12.05;2.28;;;5.60;99.90;;;;;;5073479;28;20044;-77
2022/10/11 01:18:39;;;;;;;12.68;2.08;;;5.50;99.90;;;;;;5071994;28;20057;-80
2022/10/11 01:21:27;;;;;;;7.78;2.08;;;5.50;99.90;;;;;;5074123;28;20040;-80
2022/10/11 01:24:15;;;;;;;3.53;1.95;;;5.50;99.90;;;;;;5056965;28;20056;-80
2022/10/11 01:26:58;;;;;;;5.85;2.28;;;5.50;99.90;;;;;;5074402;28;20098;-79
2022/10/11 01:29:49;;;;;;;6.85;2.85;;;5.30;99.90;;;;;;5074376;28;20048;-78
2022/10/11 01:32:39;;;;;;;7.88;2.15;;;5.50;99.90;;;;;;5074280;28;20048;-78
2022/10/11 01:35:11;;;;;;;9.70;2.20;;;5.50;99.90;;;;;;5074695;28;20060;-80
2022/10/11 01:37:42;;;;;;;9.45;2.45;;;5.40;99.90;;;;;;5074232;28;20055;-78
2022/10/11 01:40:11;;;;;;;7.32;2.28;;;5.10;99.90;;;;;;5074407;28;20043;-78
2022/10/11 01:42:40;;;;;;;7.97;2.25;;;5.40;99.90;;;;;;5073766;28;20532;-78
2022/10/11 01:45:14;;;;;;;5.70;2.05;;;5.30;99.90;;;;;;5074124;28;20056;-78
2022/10/11 01:47:41;;;;;;;8.75;2.70;;;5.30;99.90;;;;;;5073968;28;20044;-79
2022/10/11 01:50:42;;;;;;;7.05;2.80;;;4.60;99.90;;;;;;5073940;28;20087;-77
2022/10/11 01:53:26;;;;;;;5.05;2.45;;;5.40;99.90;;;;;;5074163;28;20380;-77
2022/10/11 01:56:20;;;;;;;4.07;1.98;;;5.40;99.90;;;;;;5074413;28;20439;-78
2022/10/11 01:59:23;;;;;;;7.75;1.70;;;5.30;99.90;;;;;;5073103;28;20037;-78
2022/10/11 02:02:27;;;;;;;6.85;2.40;;;5.40;99.90;;;;;;5073811;28;20046;-80
2022/10/11 02:05:13;;;;;;;4.90;1.77;;;5.30;99.90;;;;;;5074017;28;20040;-79
2022/10/11 02:08:04;;;;;;;3.60;1.95;;;5.10;99.90;;;;;;5073562;28;20496;-79
2022/10/11 02:10:41;;;;;;;11.80;2.33;;;5.20;99.90;;;;;;5073931;28;20048;-80
2022/10/11 02:13:24;;;;;;;6.15;2.05;;;5.20;99.90;;;;;;5073981;28;20545;-79
2022/10/11 02:15:52;;;;;;;7.88;2.47;;;5.20;99.90;;;;;;5073991;28;20059;-79
2022/10/11 02:18:23;;;;;;;4.68;2.10;;;5.30;99.90;;;;;;5073806;28;20480;-80
2022/10/11 02:20:50;;;;;;;6.65;1.88;;;4.90;99.90;;;;;;5073850;28;20044;-78
2022/10/11 02:23:19;;;;;;;;;;;4.90;99.90;;;;;;5074289;28;20051;-78
2022/10/11 02:25:46;;;;;;;6.72;2.00;;;4.80;99.90;;;;;;5073763;28;19920;-79
2022/10/11 02:28:18;;;;;;;7.90;1.65;;;4.90;99.90;;;;;;5073728;28;20036;-78
2022/10/11 02:30:45;;;;;;;9.13;2.85;;;5.00;99.90;;;;;;5073960;28;20076;-79
2022/10/11 02:33:16;;;;;;;9.18;2.17;;;4.90;99.90;;;;;;5077299;28;20502;-79
2022/10/11 02:35:45;;;;;;;5.50;2.05;;;4.80;99.90;;;;;;5076971;28;20055;-78
2022/10/11 02:38:23;;;;;;;4.85;1.60;;;4.90;99.90;;;;;;5077829;28;20464;-80
2022/10/11 02:41:04;;;;;;;7.15;2.05;;;4.90;99.90;;;;;;5078032;28;20047;-80
2022/10/11 02:43:39;;;;;;;4.68;1.67;;;4.90;99.90;;;;;;5076261;28;20056;-80
2022/10/11 02:46:06;;;;;;;9.75;2.30;;;4.90;99.90;;;;;;5077626;28;20048;-79
2022/10/11 02:48:34;;;;;;;4.72;1.88;;;4.90;99.90;;;;;;5077528;28;20040;-79
2022/10/11 02:51:01;;;;;;;6.90;2.38;;;5.00;99.90;;;;;;5077330;28;20048;-77
2022/10/11 02:53:27;;;;;;;6.80;1.63;;;4.80;99.90;;;;;;5077303;28;20044;-78
2022/10/11 02:55:53;;;;;;;8.98;2.10;;;4.70;99.90;;;;;;5077319;28;20399;-77
2022/10/11 02:58:20;;;;;;;5.60;1.65;;;4.60;99.90;;;;;;5077277;28;20044;-79
2022/10/11 03:00:46;;;;;;;8.07;2.33;;;4.90;99.90;;;;;;5076258;28;20036;-77
2022/10/11 03:03:11;;;;;;;8.07;2.20;;;4.80;99.90;;;;;;5077121;28;20488;-78
2022/10/11 03:05:40;;;;;;;8.05;2.05;;;4.70;99.90;;;;;;5077081;28;20404;-77
2022/10/11 03:08:07;;;;;;;4.63;1.60;;;4.80;99.90;;;;;;5077080;28;20045;-79
2022/10/11 03:10:33;;;;;;;;;;;4.80;99.90;;;;;;5077374;28;20094;-80
2022/10/11 03:12:59;;;;;;;5.38;1.90;;;4.70;99.90;;;;;;5076913;28;19978;-79
2022/10/11 03:15:25;;;;;;;6.13;1.95;;;4.60;99.90;;;;;;5076970;28;20076;-77
2022/10/11 03:17:50;;;;;;;4.75;1.40;;;4.70;99.90;;;;;;5077165;28;20506;-77
2022/10/11 03:20:16;;;;;;;7.57;2.30;;;4.70;99.90;;;;;;5075828;28;20495;-78
2022/10/11 03:22:41;;;;;;;11.05;2.17;;;4.80;99.90;;;;;;5076758;28;20121;-78
2022/10/11 03:25:08;;;;;;;5.65;2.17;;;4.70;99.90;;;;;;5076834;28;20051;-80
2022/10/11 03:27:33;;;;;;;5.18;2.05;;;4.70;99.90;;;;;;5076658;28;20445;-80
2022/10/11 03:30:00;;;;;;;8.73;2.10;;;4.50;99.90;;;;;;5076610;28;20087;-78
2022/10/11 03:32:26;;;;;;;7.68;2.00;;;4.50;99.90;;;;;;5076483;28;20169;-78
2022/10/11 03:34:51;;;;;;;12.43;2.30;;;4.50;99.90;;;;;;5075424;28;20075;-78
2022/10/11 03:37:17;;;;;;;5.55;1.80;;;4.60;99.90;;;;;;5075687;28;20123;-80
2022/10/11 03:39:44;;;;;;;19.40;3.42;;;4.50;99.90;;;;;;5076369;28;20129;-80
2022/10/11 03:42:09;;;;;;;;;;;4.50;99.90;;;;;;5076492;28;20048;-77
2022/10/11 03:44:35;;;;;;;5.93;2.33;;;4.40;99.90;;;;;;5076923;28;19920;-78
2022/10/11 03:47:01;;;;;;;4.03;1.60;;;4.40;99.90;;;;;;5076664;28;20408;-79
2022/10/11 03:49:26;;;;;;;6.18;1.95;;;4.30;99.90;;;;;;5076253;28;20051;-77
2022/10/11 03:51:52;;;;;;;4.10;1.88;;;4.50;99.90;;;;;;5076479;28;20080;-79
2022/10/11 03:54:17;;;;;;;13.35;2.53;;;4.50;99.90;;;;;;5075961;28;20048;-79
2022/10/11 03:56:43;;;;;;;5.70;2.03;;;4.40;99.90;;;;;;5074919;28;20044;-80
2022/10/11 03:59:09;;;;;;;8.23;1.88;;;4.40;99.90;;;;;;5076612;28;20087;-80
2022/10/11 04:01:37;;;;;;;7.00;1.75;;;4.10;99.90;;;;;;5075158;28;20060;-78
2022/10/11 04:04:03;;;;;;;7.90;2.47;;;4.50;99.90;;;;;;5076047;28;20052;-79
2022/10/11 04:06:29;;;;;;;6.80;1.43;;;4.30;99.90;;;;;;5076089;28;20049;-79
2022/10/11 04:08:54;;;;;;;6.15;1.83;;;4.90;99.90;;;;;;5076011;28;20102;-78
2022/10/11 04:11:20;;;;;;;4.25;1.95;;;4.40;99.90;;;;;;5075514;28;20044;-80
2022/10/11 04:13:45;;;;;;;4.05;2.30;;;4.30;99.90;;;;;;5076409;28;20131;-80
2022/10/11 04:16:11;;;;;;;12.45;2.15;;;4.30;99.90;;;;;;5076227;28;20048;-78
2022/10/11 04:18:37;;;;;;;5.97;1.83;;;4.40;99.90;;;;;;5075776;28;20131;-78
2022/10/11 04:21:02;;;;;;;5.70;2.53;;;4.30;99.90;;;;;;5075919;28;20044;-78
2022/10/11 04:23:30;;;;;;;7.28;2.05;;;4.40;99.90;;;;;;5074453;28;20048;-80
2022/10/11 04:25:56;;;;;;;3.33;1.83;;;4.30;99.90;;;;;;5075563;28;20041;-77
2022/10/11 04:28:21;;;;;;;8.43;1.80;;;4.30;99.90;;;;;;5075582;28;20055;-78
2022/10/11 04:30:47;;;;;;;4.70;1.95;;;4.30;99.90;;;;;;5074345;28;20502;-80
2022/10/11 04:33:13;;;;;;;4.72;1.83;;;4.30;99.90;;;;;;5075469;28;20428;-77
2022/10/11 04:35:39;;;;;;;3.85;1.90;;;4.30;99.90;;;;;;5075266;28;20128;-78
2022/10/11 04:38:04;;;;;;;5.90;2.03;;;4.30;99.90;;;;;;5075445;28;20045;-78
2022/10/11 04:40:30;;;;;;;11.00;2.50;;;4.30;99.90;;;;;;5075331;28;20128;-80
2022/10/11 04:42:56;;;;;;;4.45;2.05;;;4.40;99.90;;;;;;5075124;28;20056;-78
2022/10/11 04:45:21;;;;;;;8.05;2.30;;;5.60;99.90;;;;;;5075241;28;20040;-79
2022/10/11 04:47:47;;;;;;;8.75;2.55;;;4.20;99.90;;;;;;5075482;28;20040;-79
2022/10/11 04:50:13;;;;;;;4.45;2.38;;;4.30;99.90;;;;;;5075071;28;20049;-80
2022/10/11 04:52:39;;;;;;;4.82;2.13;;;4.40;99.90;;;;;;5075058;28;20056;-80
2022/10/11 04:55:05;;;;;;;4.32;2.33;;;4.20;99.90;;;;;;5073968;28;20408;-79
2022/10/11 04:57:30;;;;;;;7.30;3.72;;;4.40;99.90;;;;;;5074942;28;20032;-77
2022/10/11 04:59:57;;;;;;;8.55;4.70;;;4.20;99.90;;;;;;5074590;28;20110;-78
2022/10/11 05:02:23;;;;;;;8.93;5.90;;;4.30;99.90;;;;;;5074801;28;20044;-77
2022/10/11 05:04:48;;;;;;;7.57;4.00;;;4.80;99.90;;;;;;5075008;28;20127;-77
2022/10/11 05:07:14;;;;;;;10.30;3.15;;;4.30;99.90;;;;;;5074760;28;20041;-77
2022/10/11 05:09:39;;;;;;;7.38;2.65;;;4.90;99.90;;;;;;5073650;28;20132;-77
2022/10/11 05:12:05;;;;;;;6.20;2.60;;;4.10;99.90;;;;;;5073431;28;20041;-80
2022/10/11 05:14:31;;;;;;;6.32;2.58;;;4.50;99.90;;;;;;5074987;28;20048;-78
2022/10/11 05:16:56;;;;;;;9.57;3.85;;;4.30;99.90;;;;;;5074938;28;20080;-80
2022/10/11 05:19:22;;;;;;;6.63;2.50;;;4.30;99.90;;;;;;5074434;28;20055;-80
2022/10/11 05:21:47;;;;;;;8.70;3.60;;;4.40;99.90;;;;;;5074534;28;20042;-78
2022/10/11 05:24:13;;;;;;;9.15;3.53;;;4.20;99.90;;;;;;5074438;28;20446;-79
2022/10/11 05:26:38;;;;;;;6.68;3.22;;;4.30;99.90;;;;;;5073383;28;20059;-81
2022/10/11 05:29:04;;;;;;;5.05;3.95;;;5.10;99.90;;;;;;5074475;28;20074;-80
2022/10/11 05:31:30;;;;;;;5.90;2.70;;;4.30;99.90;;;;;;5074278;28;20044;-82
2022/10/11 05:33:55;;;;;;;10.07;3.53;;;5.30;99.90;;;;;;5074230;28;20044;-79
2022/10/11 05:36:21;;;;;;;5.18;3.17;;;4.20;99.90;;;;;;5074265;28;20083;-79
2022/10/11 05:38:47;;;;;;;7.95;3.22;;;4.20;99.90;;;;;;5074142;28;20082;-80
2022/10/11 05:41:13;;;;;;;8.95;2.85;;;3.70;99.90;;;;;;5074070;28;20048;-80
2022/10/11 05:43:39;;;;;;;10.02;2.95;;;4.20;99.90;;;;;;5074031;28;20069;-80
2022/10/11 05:46:05;;;;;;;7.13;3.15;;;4.20;99.90;;;;;;5074457;28;20060;-81
2022/10/11 05:48:31;;;;;;;5.78;3.08;;;3.00;99.90;;;;;;5074449;28;20059;-82
2022/10/11 05:51:02;;;;;;;7.70;3.33;;;4.90;99.90;;;;;;5074178;28;20127;-81
2022/10/11 05:53:28;;;;;;;5.35;2.53;;;4.50;99.90;;;;;;5074329;28;20044;-82
2022/10/11 05:55:54;;;;;;;6.75;2.97;;;4.50;99.90;;;;;;5072298;28;20476;-78
2022/10/11 05:58:20;;;;;;;4.73;2.87;;;4.70;99.90;;;;;;5072194;28;20040;-75
2022/10/11 06:00:45;;;;;;;4.63;2.72;;;4.30;99.90;;;;;;5071930;28;20800;-77
2022/10/11 06:03:12;;;;;;;11.07;2.50;;;4.30;99.90;;;;;;5072023;28;20087;-76
2022/10/11 06:05:38;;;;;;;11.63;2.80;;;4.40;99.90;;;;;;5072058;28;20098;-76
2022/10/11 06:08:05;;;;;;;8.32;2.53;;;4.50;99.90;;;;;;5071920;28;20616;-75
2022/10/11 06:10:31;;;;;;;11.50;3.65;;;;;;;;;;5071519;28;20036;-78
2022/10/11 06:12:57;;;;;;;8.32;3.20;;;4.30;99.90;;;;;;5072293;28;20051;-78
2022/10/11 06:15:23;;;;;;;9.57;3.35;;;4.30;99.90;;;;;;5072056;28;20056;-79
2022/10/11 06:17:50;;;;;;;9.25;3.08;;;4.40;99.90;;;;;;5072123;28;20128;-80
2022/10/11 06:20:15;;;;;;;8.88;3.25;;;4.40;99.90;;;;;;5072958;28;20396;-81
2022/10/11 06:22:41;;;;;;;10.80;4.63;;;4.40;99.90;;;;;;5073179;28;20040;-78
2022/10/11 06:25:07;;;;;;;8.70;3.55;;;4.40;99.90;;;;;;5073646;28;20388;-77
2022/10/11 06:27:33;;;;;;;7.00;2.85;;;4.50;99.90;;;;;;5073595;28;20048;-78
2022/10/11 06:29:59;;;;;;;8.60;3.63;;;4.50;99.90;;;;;;5073491;28;20041;-77
2022/10/11 06:32:24;;;;;;;6.28;3.30;;;4.50;99.90;;;;;;5072078;28;20045;-77
2022/10/11 06:34:50;;;;;;;13.25;3.38;;;4.50;99.90;;;;;;5072494;28;20049;-79
2022/10/11 06:37:15;;;;;;;7.07;3.10;;;4.50;99.90;;;;;;5072541;28;20045;-77
2022/10/11 06:39:41;;;;;;;11.80;4.97;;;4.60;99.90;;;;;;5073412;28;20052;-78
2022/10/11 06:42:09;;;;;;;7.75;3.22;;;4.60;99.90;;;;;;5073658;28;20098;-77
2022/10/11 06:44:35;;;;;;;11.35;3.38;;;4.60;99.90;;;;;;5073731;28;20048;-76
2022/10/11 06:47:00;;;;;;;11.30;3.10;;;4.60;99.90;;;;;;5073542;28;20044;-78
2022/10/11 06:49:26;;;;;;;7.40;3.03;;;4.60;99.90;;;;;;5073396;28;20090;-79
2022/10/11 06:51:51;;;;;;;13.57;3.58;;;4.70;99.90;;;;;;5064535;28;20040;-76
2022/10/11 06:54:17;;;;;;;6.97;3.03;;;4.70;99.90;;;;;;5067652;28;20037;-77
2022/10/11 06:56:44;;;;;;;12.60;2.70;;;4.80;99.90;;;;;;5072580;28;20128;-78
2022/10/11 06:59:11;;;;;;;7.25;3.45;;;4.90;99.90;;;;;;5073199;28;20053;-81
2022/10/11 07:01:36;;;;;;;13.38;3.30;;;4.90;99.90;;;;;;5073272;28;20080;-81
2022/10/11 07:04:02;;;;;;;9.75;3.28;;;5.20;99.90;;;;;;5072150;28;20067;-78
2022/10/11 07:06:29;;;;;;;9.57;3.80;;;5.00;99.90;;;;;;5073247;28;20048;-81
2022/10/11 07:08:55;;;;;;;12.85;4.72;;;5.10;99.90;;;;;;5072897;28;20493;-81
2022/10/11 07:11:24;;;;;;;9.70;3.83;;;5.10;99.90;;;;;;5073273;28;20040;-78
2022/10/11 07:13:55;;;;;;;8.07;3.40;;;5.20;99.90;;;;;;5073293;28;20102;-80
2022/10/11 07:16:21;;;;;;;10.38;3.50;;;5.30;99.90;;;;;;5072284;28;20381;-79
2022/10/11 07:18:50;;;;;;;10.98;3.50;;;5.30;99.90;;;;;;5057944;28;20094;-79
2022/10/11 07:21:16;;;;;;;9.93;3.55;;;5.40;99.90;;;;;;5076811;28;20130;-79
2022/10/11 07:23:42;;;;;;;13.32;3.97;;;5.50;99.90;;;;;;5076684;28;20040;-79
2022/10/11 07:26:09;;;;;;;9.10;4.65;;;5.60;99.90;;;;;;5076777;28;20056;-78
2022/10/11 07:28:35;;;;;;;8.80;3.58;;;5.60;99.90;;;;;;5076906;28;20499;-78
2022/10/11 07:31:13;;;;;;;8.55;3.47;;;5.90;99.90;;;;;;5076722;28;20051;-80
2022/10/11 07:33:38;;;;;;;12.77;4.18;;;5.90;99.90;;;;;;5077011;28;20396;-79
2022/10/11 07:36:05;;;;;;;11.38;3.28;;;5.90;99.90;;;;;;5076706;28;20041;-79
2022/10/11 07:38:32;;;;;;;11.02;4.35;;;6.00;99.90;;;;;;5076705;28;20041;-77
2022/10/11 07:40:58;;;;;;;;;;;6.10;99.90;;;;;;5076232;28;20075;-80
2022/10/11 07:43:24;;;;;;;15.93;4.05;;;6.10;99.90;;;;;;5075981;28;19921;-78
2022/10/11 07:45:54;;;;;;;7.67;3.70;;;6.20;99.90;;;;;;5076165;28;20049;-78
2022/10/11 07:48:20;;;;;;;12.25;3.97;;;6.30;99.90;;;;;;5076562;28;20370;-77
2022/10/11 07:50:45;;;;;;;13.45;3.85;;;6.30;99.90;;;;;;5076037;28;20123;-77
2022/10/11 07:53:11;;;;;;;12.68;4.05;;;6.40;99.90;;;;;;5076388;28;20044;-78
2022/10/11 07:55:39;;;;;;;11.07;3.60;;;6.40;99.90;;;;;;5076352;28;20045;-77
2022/10/11 07:58:09;;;;;;;13.07;3.72;;;6.40;99.90;;;;;;5076584;28;20056;-81
2022/10/11 08:00:35;;;;;;;8.73;3.65;;;6.50;99.90;;;;;;5076387;28;20051;-80
2022/10/11 08:03:05;;;;;;;8.60;4.13;;;6.60;99.90;;;;;;5076099;28;20032;-80
2022/10/11 08:05:32;;;;;;;12.35;3.80;;;6.60;99.90;;;;;;5074834;28;20045;-78
2022/10/11 08:07:58;;;;;;;14.85;4.32;;;6.60;99.90;;;;;;5074859;28;20037;-79
2022/10/11 08:10:25;;;;;;;7.78;3.97;;;6.70;99.90;;;;;;5076266;28;20093;-79
2022/10/11 08:12:52;;;;;;;8.93;3.10;;;6.70;99.90;;;;;;5075946;28;20049;-79
2022/10/11 08:15:18;;;;;;;8.50;3.30;;;6.70;99.90;;;;;;5075842;28;20044;-80
2022/10/11 08:17:44;;;;;;;8.95;3.40;;;6.80;99.90;;;;;;5075784;28;20093;-78
2022/10/11 08:20:10;;;;;;;12.30;3.78;;;6.90;99.90;;;;;;5075682;28;20040;-76
2022/10/11 08:22:35;;;;;;;11.48;3.55;;;7.30;99.90;;;;;;5075717;28;20051;-80
2022/10/11 08:25:01;;;;;;;12.38;4.47;;;7.10;99.90;;;;;;5075725;28;20050;-78
2022/10/11 08:27:26;;;;;;;9.10;4.15;;;7.20;99.90;;;;;;5058063;28;20094;-76
2022/10/11 08:29:52;;;;;;;14.40;3.50;;;7.30;99.90;;;;;;5074388;28;20044;-79
2022/10/11 08:32:17;;;;;;;17.98;3.78;;;7.40;99.90;;;;;;5075714;28;20105;-77
2022/10/11 08:34:43;;;;;;;6.22;3.25;;;7.60;99.90;;;;;;5075435;28;20039;-79
2022/10/11 08:37:08;;;;;;;9.73;3.75;;;7.70;99.90;;;;;;5075458;28;20102;-78
2022/10/11 08:39:34;;;;;;;11.73;3.85;;;8.30;99.90;;;;;;5075464;28;20052;-78
2022/10/11 08:42:05;;;;;;;12.07;3.78;;;8.00;99.90;;;;;;5075329;28;20071;-78
2022/10/11 08:44:34;;;;;;;12.68;3.58;;;8.10;99.90;;;;;;5075675;28;20096;-79
2022/10/11 08:47:30;;;;;;;8.00;3.47;;;8.30;99.90;;;;;;5075183;28;20059;-78
2022/10/11 08:49:58;;;;;;;14.52;4.03;;;8.30;99.90;;;;;;5075125;28;20102;-77
2022/10/11 08:52:27;;;;;;;8.82;3.67;;;8.50;99.90;;;;;;5073869;28;20400;-78
2022/10/11 08:55:27;;;;;;;11.80;4.22;;;8.60;99.90;;;;;;5074918;28;20559;-78
2022/10/11 08:57:55;;;;;;;14.45;3.83;;;8.70;99.90;;;;;;5075026;28;20052;-77
2022/10/11 09:00:22;;;;;;;12.02;3.42;;;8.90;99.90;;;;;;5074946;28;20450;-77
2022/10/11 09:03:32;;;;;;;9.35;4.00;;;8.90;99.90;;;;;;5074893;28;20099;-78
2022/10/11 09:06:13;;;;;;;13.10;3.70;;;9.10;99.90;;;;;;5074891;28;20048;-79
2022/10/11 09:09:09;;;;;;;8.90;3.65;;;9.20;99.90;;;;;;5074844;28;20051;-77
2022/10/11 09:11:46;;;;;;;14.07;3.45;;;9.40;99.90;;;;;;5074926;28;20040;-79
2022/10/11 09:14:36;;;;;;;11.43;3.33;;;9.50;99.90;;;;;;5074886;28;20052;-78
2022/10/11 09:17:22;;;;;;;8.25;2.63;;;9.70;99.90;;;;;;5074682;28;20135;-79
2022/10/11 09:20:22;;;;;;;8.00;2.28;;;9.80;99.90;;;;;;5070342;28;20056;-79
2022/10/11 09:23:08;;;;;;;10.45;2.83;;;10.00;99.90;;;;;;5067225;28;20056;-79
2022/10/11 09:25:45;;;;;;;10.35;3.00;;;10.20;99.90;;;;;;5074862;28;20102;-80
2022/10/11 09:28:29;;;;;;;9.67;2.60;;;10.50;99.90;;;;;;5074476;28;20071;-78
2022/10/11 09:30:56;;;;;;;10.15;2.85;;;10.60;99.90;;;;;;5074475;28;20393;-78
2022/10/11 09:33:51;;;;;;;15.85;2.80;;;10.70;99.90;;;;;;5074238;28;20101;-80
2022/10/11 09:36:35;;;;;;;13.65;2.75;;;10.70;99.90;;;;;;5069569;28;20484;-77
2022/10/11 09:39:30;;;;;;;9.85;2.17;;;10.90;99.90;;;;;;5074124;28;20132;-80
2022/10/11 09:41:59;;;;;;;8.95;2.33;;;11.00;99.90;;;;;;5073951;28;20052;-77
2022/10/11 09:44:32;;;;;;;10.40;2.42;;;11.10;99.90;;;;;;5073680;28;20052;-77
2022/10/11 09:46:58;;;;;;;7.78;2.10;;;11.10;99.90;;;;;;5074124;28;20044;-79
2022/10/11 09:49:33;;;;;;;9.02;2.30;;;11.20;99.90;;;;;;5074055;28;20067;-79
2022/10/11 09:52:02;;;;;;;10.70;2.45;;;11.30;99.90;;;;;;5073905;28;20043;-77
2022/10/11 09:54:48;;;;;;;7.45;2.03;;;11.40;99.90;;;;;;5074008;28;20396;-78
2022/10/11 09:57:28;;;;;;;7.80;1.98;;;11.40;99.90;;;;;;5073865;28;20052;-78
2022/10/11 10:00:05;;;;;;;11.48;3.47;;;11.50;99.90;;;;;;5072831;28;20225;-79
2022/10/11 10:02:40;;;;;;;9.13;2.17;;;11.50;99.90;;;;;;5073505;28;20106;-77
2022/10/11 10:05:09;;;;;;;5.07;1.75;;;11.50;99.90;;;;;;5077235;28;20071;-79
2022/10/11 10:07:39;;;;;;;10.75;2.53;;;11.60;99.90;;;;;;5075475;28;20055;-79
2022/10/11 10:10:30;;;;;;;14.32;3.08;;;11.70;99.90;;;;;;5079427;28;20127;-81
2022/10/11 10:12:58;;;;;;;11.55;2.42;;;11.80;99.90;;;;;;5070169;28;20088;-80
2022/10/11 10:15:33;;;;;;;15.80;2.20;;;11.90;99.90;;;;;;5073458;28;20102;-79
2022/10/11 10:17:59;;;;;;;12.85;3.15;;;12.00;99.90;;;;;;5073525;28;20503;-83
2022/10/11 10:20:31;;;;;;;9.18;2.65;;;12.10;99.90;;;;;;5072407;28;20047;-78
2022/10/11 10:22:59;;;;;;;7.65;1.77;;;12.20;99.90;;;;;;5073682;28;20052;-78
2022/10/11 10:25:33;;;;;;;8.60;2.25;;;12.30;99.90;;;;;;5073568;28;20056;-78
2022/10/11 10:28:02;;;;;;;7.85;2.20;;;12.90;99.90;;;;;;5073596;28;20052;-80
2022/10/11 10:30:28;;;;;;;10.10;2.58;;;12.50;99.90;;;;;;5073482;28;20045;-79
2022/10/11 10:33:05;;;;;;;6.82;2.05;;;12.60;99.90;;;;;;5073606;28;20052;-80
2022/10/11 10:35:55;;;;;;;8.27;2.40;;;12.70;99.90;;;;;;5073557;28;20044;-81
2022/10/11 10:38:30;;;;;;;10.55;1.83;;;12.90;99.90;;;;;;5072878;28;20079;-80
2022/10/11 10:41:09;;;;;;;11.57;2.03;;;13.10;99.90;;;;;;5073497;28;20048;-80
2022/10/11 10:43:38;;;;;;;10.02;2.45;;;13.10;99.90;;;;;;5073366;28;20484;-80
2022/10/11 10:46:22;;;;;;;9.30;1.88;;;13.20;99.90;;;;;;5073427;28;20047;-80
2022/10/11 10:49:24;;;;;;;10.52;1.85;;;13.30;99.90;;;;;;5073443;28;20378;-78
2022/10/11 10:52:25;;;;;;;9.70;2.05;;;13.40;99.90;;;;;;5073502;28;20388;-80
2022/10/11 10:55:06;;;;;;;13.38;2.38;;;13.50;99.90;;;;;;5068534;28;20049;-78
2022/10/11 10:57:38;;;;;;;11.15;2.70;;;13.60;99.90;;;;;;5077413;28;20408;-77
2022/10/11 11:00:20;;;;;;;9.93;2.40;;;13.70;99.90;;;;;;5077648;28;20041;-78
2022/10/11 11:03:01;;;;;;;11.95;2.97;;;13.90;99.90;;;;;;5077092;28;20041;-79
2022/10/11 11:05:58;;;;;;;11.88;2.53;;;14.00;99.90;;;;;;5076666;28;20101;-77
2022/10/11 11:09:03;;;;;;;13.68;2.80;;;14.10;99.90;;;;;;5077266;28;20041;-78
2022/10/11 11:11:49;;;;;;;8.85;2.60;;;14.20;99.90;;;;;;5076964;28;20052;-77
2022/10/11 11:14:40;;;;;;;10.13;2.47;;;14.20;99.90;;;;;;5077374;28;20131;-78
2022/10/11 11:17:39;;;;;;;11.15;2.80;;;14.30;99.90;;;;;;5075958;28;20494;-76
2022/10/11 11:20:29;;;;;;;11.40;2.83;;;14.30;99.90;;;;;;5077293;28;20450;-78
2022/10/11 11:23:05;;;;;;;8.70;2.80;;;14.40;99.90;;;;;;5076864;28;20044;-78
2022/10/11 11:25:55;;;;;;;11.73;2.67;;;14.40;99.90;;;;;;5075960;28;20052;-78
2022/10/11 11:28:57;;;;;;;8.13;2.45;;;14.50;99.90;;;;;;5075773;28;20087;-78
2022/10/11 11:31:35;;;;;;;13.65;2.95;;;14.50;99.90;;;;;;5075619;28;20052;-77
2022/10/11 11:34:31;;;;;;;9.43;2.78;;;14.50;99.90;;;;;;5076930;28;20601;-78
2022/10/11 11:37:19;;;;;;;10.82;2.80;;;14.60;99.90;;;;;;5077054;28;20055;-79
2022/10/11 11:39:48;;;;;;;10.02;2.97;;;14.60;99.90;;;;;;5076526;28;20040;-78
2022/10/11 11:42:28;;;;;;;11.02;2.85;;;14.50;99.90;;;;;;5076406;28;20040;-77
2022/10/11 11:44:54;;;;;;;11.05;2.75;;;14.70;99.90;;;;;;5076386;28;20052;-79
2022/10/11 11:47:27;;;;;;;9.57;2.67;;;14.70;99.90;;;;;;5076298;28;20102;-77
2022/10/11 11:49:58;;;;;;;12.35;3.00;;;14.80;99.90;;;;;;5074739;28;20642;-78
2022/10/11 11:52:46;;;;;;;13.13;2.60;;;14.90;99.90;;;;;;5076262;28;20119;-78
2022/10/11 11:55:22;;;;;;;9.13;2.50;;;15.00;99.90;;;;;;5076361;28;20045;-78
2022/10/11 11:58:01;;;;;;;14.07;2.75;;;15.00;99.90;;;;;;5075294;28;20079;-79
2022/10/11 12:00:33;;;;;;;10.52;2.20;;;15.00;99.90;;;;;;5076507;28;20083;-77
2022/10/11 12:03:01;;;;;;;10.15;4.35;;;15.20;99.90;;;;;;5076100;28;20504;-78
2022/10/11 12:05:31;;;;;;;10.13;2.97;;;15.20;99.90;;;;;;5075754;28;20049;-78
2022/10/11 12:08:00;;;;;;;13.55;2.90;;;15.40;99.90;;;;;;5075947;28;20045;-78
2022/10/11 12:10:47;;;;;;;9.48;2.65;;;15.40;99.90;;;;;;5075789;28;20041;-79
2022/10/11 12:13:24;;;;;;;9.63;2.65;;;15.50;99.90;;;;;;5075908;28;20057;-77
2022/10/11 12:16:00;;;;;;;10.70;3.33;;;15.60;99.90;;;;;;5075965;28;20378;-76
2022/10/11 12:18:27;;;;;;;11.48;2.85;;;15.70;99.90;;;;;;5075436;28;20616;-78
2022/10/11 12:21:22;;;;;;;;;;;15.80;99.90;;;;;;5076112;28;20091;-79
2022/10/11 12:23:51;;;;;;;11.38;2.30;;;15.90;99.90;;;;;;5066210;28;19926;-79
2022/10/11 12:26:37;;;;;;;10.98;2.50;;;16.10;99.90;;;;;;5075595;28;20431;-77
2022/10/11 12:29:17;;;;;;;6.90;2.25;;;16.10;99.90;;;;;;5075169;28;20044;-79
2022/10/11 12:31:57;;;;;;;8.05;2.60;;;15.90;99.90;;;;;;5075410;28;20110;-76
2022/10/11 12:34:34;;;;;;;9.55;2.30;;;15.70;99.90;;;;;;5075604;28;20052;-77
2022/10/11 12:37:20;;;;;;;9.27;2.40;;;15.40;99.90;;;;;;5074214;28;20403;-75
2022/10/11 12:40:00;;;;;;;8.98;2.28;;;15.20;99.90;;;;;;5075046;28;20484;-76
2022/10/11 12:42:35;;;;;;;7.10;2.33;;;15.10;99.90;;;;;;5074360;28;20416;-75
2022/10/11 12:45:13;;;;;;;11.50;2.28;;;15.40;99.90;;;;;;5075480;28;20392;-77
2022/10/11 12:47:53;;;;;;;;;;;15.00;99.90;;;;;;5075522;28;20080;-76
2022/10/11 12:50:38;;;;;;;8.80;2.50;;;15.00;99.90;;;;;;5075437;28;19985;-77
2022/10/11 12:53:26;;;;;;;10.60;2.30;;;15.00;99.90;;;;;;5075459;28;20048;-76
2022/10/11 12:55:58;;;;;;;;;;;15.00;99.90;;;;;;5075439;28;20052;-78
2022/10/11 12:58:45;;;;;;;8.32;2.25;;;15.00;99.90;;;;;;5075098;28;20061;-76
2022/10/11 13:01:18;;;;;;;9.30;1.90;;;15.10;99.90;;;;;;5075234;28;20052;-77
2022/10/11 13:04:06;;;;;;;10.98;2.95;;;15.10;99.90;;;;;;5074795;28;20047;-78
2022/10/11 13:06:53;;;;;;;9.63;3.05;;;15.20;99.90;;;;;;5071467;28;20098;-76
2022/10/11 13:09:28;;;;;;;11.27;4.25;;;15.20;99.90;;;;;;5074819;28;20044;-77
2022/10/11 13:12:03;;;;;;;7.40;3.30;;;15.10;99.90;;;;;;5074997;28;20135;-77
2022/10/11 13:14:34;;;;;;;9.40;2.58;;;15.20;99.90;;;;;;5074610;28;20048;-77
2022/10/11 13:17:13;;;;;;;8.93;3.03;;;15.20;99.90;;;;;;5074097;28;20381;-78
2022/10/11 13:19:39;;;;;;;9.18;2.70;;;15.10;99.90;;;;;;5074645;28;20049;-78